Time;durP1;ratioP1;P1;durP2;ratioP2;P2;SDS_P1;SDS_P2;PMS_P1;PMS_P2;Temp;Humidity;BMP_temperature;BMP_pressure;BME280_temperature;BME280_humidity;BME280_pressure;Samples;Min_cycle;Max_cycle;Signal;HPM_P1;HPM_P2
2021/06/26 00:01:28;;;;;;;2.20;2.10;;;17.90;99.90;;;;;;2774035;22;20240;-84
2021/06/26 00:03:55;;;;;;;3.13;2.92;;;17.90;99.90;;;;;;3657376;22;20221;-87
2021/06/26 00:12:01;;;;;;;2.78;2.45;;;17.70;99.90;;;;;;3646680;23;20244;-83
2021/06/26 00:14:54;;;;;;;3.00;2.70;;;17.80;99.90;;;;;;3837691;22;20929;-86
2021/06/26 00:22:45;;;;;;;3.33;3.03;;;17.60;99.90;;;;;;3755055;22;20307;-84
2021/06/26 00:27:54;;;;;;;3.33;3.03;;;17.30;99.90;;;;;;3593075;40;20231;-83
2021/06/26 00:30:22;;;;;;;3.10;2.80;;;17.30;99.90;;;;;;3642424;22;20232;-83
2021/06/26 00:32:49;;;;;;;3.47;3.15;;;17.20;99.90;;;;;;3623771;39;20233;-85
2021/06/26 00:35:17;;;;;;;4.45;3.40;;;17.30;99.90;;;;;;3648643;22;20294;-84
2021/06/26 00:37:46;;;;;;;4.25;2.92;;;17.20;99.90;;;;;;3613495;40;20346;-85
2021/06/26 00:45:47;;;;;;;6.07;4.03;;;17.60;99.90;;;;;;3531396;22;20238;-85
2021/06/26 00:48:14;;;;;;;5.57;3.15;;;17.30;99.90;;;;;;3793074;22;20475;-81
2021/06/26 00:50:42;;;;;;;3.08;2.88;;;17.50;99.90;;;;;;3725895;22;20232;-83
2021/06/26 00:55:59;;;;;;;3.90;3.03;;;18.00;99.90;;;;;;3725488;22;20253;-85
2021/06/26 00:58:27;;;;;;;5.90;3.67;;;18.00;99.90;;;;;;3657684;22;20230;-84
2021/06/26 01:00:54;;;;;;;3.08;2.78;;;17.90;99.90;;;;;;3457038;22;20280;-84
2021/06/26 01:06:13;;;;;;;3.40;3.10;;;17.90;99.90;;;;;;3041420;22;20245;-83
2021/06/26 01:09:06;;;;;;;5.70;3.80;;;18.20;99.90;;;;;;3782965;22;21224;-83
2021/06/26 01:11:35;;;;;;;3.33;3.08;;;18.00;99.90;;;;;;3428253;22;20255;-85
2021/06/26 01:19:41;;;;;;;5.88;3.38;;;17.30;99.90;;;;;;3713956;22;20245;-84
2021/06/26 01:22:09;;;;;;;4.18;3.72;;;17.20;99.90;;;;;;3657410;22;20283;-84
2021/06/26 01:24:38;;;;;;;5.75;4.10;;;17.40;99.90;;;;;;3645946;22;20289;-84
2021/06/26 01:32:30;;;;;;;3.88;2.65;;;18.10;99.90;;;;;;3709613;22;20226;-86
2021/06/26 01:35:08;;;;;;;4.97;3.40;;;18.00;99.90;;;;;;3692867;22;20229;-86
2021/06/26 01:37:38;;;;;;;4.55;3.35;;;18.20;99.90;;;;;;3544459;22;20221;-85
2021/06/26 01:40:09;;;;;;;4.03;3.55;;;18.30;99.90;;;;;;3680370;22;20264;-84
2021/06/26 01:42:38;;;;;;;7.32;3.95;;;18.20;99.90;;;;;;3676116;22;20386;-83
2021/06/26 01:45:07;;;;;;;3.42;3.13;;;18.00;99.90;;;;;;3692613;22;20233;-83
2021/06/26 01:47:34;;;;;;;5.00;3.28;;;18.10;99.90;;;;;;3758262;22;20254;-84
2021/06/26 01:50:02;;;;;;;4.35;3.35;;;18.10;99.90;;;;;;3596925;23;20240;-85
2021/06/26 01:52:29;;;;;;;6.97;3.75;;;18.20;99.90;;;;;;3642049;23;20238;-86
2021/06/26 01:54:57;;;;;;;3.92;3.60;;;17.90;99.90;;;;;;3640863;23;20257;-85
2021/06/26 01:57:25;;;;;;;9.00;4.38;;;17.60;99.90;;;;;;3658794;22;20233;-83
2021/06/26 01:59:52;;;;;;;4.47;4.18;;;17.50;99.90;;;;;;3646536;22;20240;-83
2021/06/26 02:02:20;;;;;;;4.97;4.00;;;17.60;99.90;;;;;;3648452;22;20238;-85
2021/06/26 02:07:28;;;;;;;3.95;3.50;;;17.20;99.90;;;;;;3462081;22;20250;-85
2021/06/26 02:10:00;;;;;;;7.97;5.50;;;17.00;99.90;;;;;;3724997;22;20237;-85
2021/06/26 02:12:28;;;;;;;5.00;4.55;;;16.80;99.90;;;;;;3513595;22;20247;-83
2021/06/26 02:14:56;;;;;;;5.00;3.80;;;16.90;99.90;;;;;;3726658;22;20240;-84
2021/06/26 02:17:48;;;;;;;4.75;3.83;;;16.90;99.90;;;;;;3682863;22;21314;-86
2021/06/26 02:22:50;;;;;;;5.70;4.93;;;17.10;99.90;;;;;;3675826;23;20249;-85
2021/06/26 02:28:11;;;;;;;5.60;4.43;;;17.30;99.90;;;;;;3464658;22;21302;-84
2021/06/26 02:30:41;;;;;;;4.68;4.28;;;17.30;99.90;;;;;;3789793;22;20316;-85
2021/06/26 02:35:43;;;;;;;4.82;4.40;;;17.30;99.90;;;;;;3655446;22;20264;-86
2021/06/26 02:38:10;;;;;;;4.38;3.97;;;17.10;99.90;;;;;;3691945;22;20328;-84
2021/06/26 02:40:37;;;;;;;8.88;4.28;;;17.20;99.90;;;;;;3708146;22;20241;-86
2021/06/26 02:43:04;;;;;;;13.15;5.82;;;16.90;99.90;;;;;;3643769;22;20319;-85
2021/06/26 02:45:43;;;;;;;4.82;4.43;;;16.80;99.90;;;;;;3768961;22;20261;-86
2021/06/26 02:53:45;;;;;;;5.22;4.72;;;17.00;99.90;;;;;;3013326;22;20298;-86
2021/06/26 02:56:12;;;;;;;4.55;4.05;;;17.00;99.90;;;;;;3727554;22;20265;-86
2021/06/26 02:58:40;;;;;;;5.55;5.03;;;17.00;99.90;;;;;;3037581;22;20386;-86
2021/06/26 03:04:00;;;;;;;4.70;4.18;;;17.10;99.90;;;;;;3718205;22;20226;-86
2021/06/26 03:09:19;;;;;;;6.68;4.25;;;16.80;99.90;;;;;;3657500;22;20271;-84
2021/06/26 03:11:47;;;;;;;7.63;4.70;;;16.60;99.90;;;;;;3677850;22;20242;-83
2021/06/26 03:14:14;;;;;;;9.40;4.93;;;16.50;99.90;;;;;;3701646;23;20242;-85
2021/06/26 03:16:41;;;;;;;7.32;4.85;;;16.50;99.90;;;;;;3657559;23;20317;-83
2021/06/26 03:19:08;;;;;;;5.60;4.60;;;16.40;99.90;;;;;;3680456;22;20242;-86
2021/06/26 03:21:35;;;;;;;8.50;5.40;;;16.40;99.90;;;;;;3658137;22;20229;-86
2021/06/26 03:24:03;;;;;;;7.78;4.93;;;16.50;99.90;;;;;;3682049;22;21312;-87
2021/06/26 03:26:33;;;;;;;5.35;4.85;;;16.50;99.90;;;;;;3657701;22;20241;-84
2021/06/26 03:29:01;;;;;;;7.28;4.57;;;16.40;99.90;;;;;;3647618;22;20248;-86
2021/06/26 03:31:28;;;;;;;6.35;4.93;;;16.60;99.90;;;;;;3657530;22;20230;-84
2021/06/26 03:33:55;;;;;;;6.50;4.95;;;16.60;99.90;;;;;;3649701;22;20294;-83
2021/06/26 03:36:24;;;;;;;5.05;4.65;;;16.40;99.90;;;;;;3681783;22;20237;-85
2021/06/26 03:38:51;;;;;;;8.40;5.22;;;16.00;99.90;;;;;;3645704;22;20238;-87
2021/06/26 03:41:23;;;;;;;5.22;4.72;;;16.00;99.90;;;;;;3636856;22;20255;-84
2021/06/26 03:43:52;;;;;;;5.93;4.85;;;16.20;99.90;;;;;;3716311;23;20295;-84
2021/06/26 03:46:19;;;;;;;5.90;5.40;;;16.10;99.90;;;;;;3738865;23;20263;-83
2021/06/26 03:48:46;;;;;;;6.05;5.28;;;16.00;99.90;;;;;;3594729;23;20337;-84
2021/06/26 03:51:13;;;;;;;6.60;5.97;;;16.10;99.90;;;;;;3653313;23;20241;-85
2021/06/26 03:53:41;;;;;;;6.80;5.85;;;16.20;99.90;;;;;;3640476;22;20237;-88
2021/06/26 03:56:11;;;;;;;5.82;5.40;;;16.30;99.90;;;;;;3639573;23;20234;-84
2021/06/26 03:58:39;;;;;;;7.63;5.57;;;16.40;99.90;;;;;;3708128;23;20245;-83
2021/06/26 04:01:07;;;;;;;5.97;5.40;;;16.20;99.90;;;;;;3657963;22;20240;-84
2021/06/26 04:03:34;;;;;;;6.38;5.78;;;16.20;99.90;;;;;;3417062;22;1166008;-85
2021/06/26 04:06:02;;;;;;;6.80;6.00;;;16.30;99.90;;;;;;3662365;22;21327;31
2021/06/26 04:08:29;;;;;;;10.55;5.47;;;16.60;99.90;;;;;;3363740;23;20259;-84
2021/06/26 04:10:57;;;;;;;7.35;6.10;;;16.60;99.90;;;;;;3657309;22;20240;-84
2021/06/26 04:13:24;;;;;;;6.13;5.63;;;16.90;99.90;;;;;;3658237;22;20237;-84
2021/06/26 04:15:51;;;;;;;9.05;6.40;;;16.80;99.90;;;;;;3689460;22;20376;-84
2021/06/26 04:18:20;;;;;;;7.50;6.35;;;17.00;99.90;;;;;;3689880;22;20264;-86
2021/06/26 04:20:47;;;;;;;7.88;5.72;;;16.90;99.90;;;;;;3657948;22;20233;-82
2021/06/26 04:23:14;;;;;;;7.85;6.38;;;17.10;99.90;;;;;;3649224;22;20327;-85
2021/06/26 04:25:41;;;;;;;8.48;5.05;;;17.10;99.90;;;;;;3649895;22;20298;-85
2021/06/26 04:28:10;;;;;;;5.70;4.97;;;17.40;99.90;;;;;;3647666;22;20240;-83
2021/06/26 04:30:40;;;;;;;7.68;5.03;;;17.60;99.90;;;;;;3647794;22;20273;-83
2021/06/26 04:33:07;;;;;;;5.90;5.45;;;17.50;99.90;;;;;;3636843;23;20230;-85
2021/06/26 04:35:36;;;;;;;6.78;5.43;;;17.40;99.90;;;;;;3658723;23;20233;-82
2021/06/26 04:38:03;;;;;;;8.30;7.20;;;17.30;99.90;;;;;;3681353;22;21397;-81
2021/06/26 04:40:31;;;;;;;9.13;5.88;;;17.10;99.90;;;;;;3646806;22;20287;-81
2021/06/26 04:42:58;;;;;;;6.80;6.05;;;17.10;99.90;;;;;;3637044;23;20250;-83
2021/06/26 04:45:25;;;;;;;8.05;6.93;;;17.30;99.90;;;;;;3651975;23;20249;-84
2021/06/26 04:47:52;;;;;;;6.03;5.47;;;17.40;99.90;;;;;;3615104;39;20214;-85
2021/06/26 04:50:20;;;;;;;6.97;6.28;;;17.20;99.90;;;;;;3657878;22;20225;-85
2021/06/26 04:52:48;;;;;;;7.53;6.82;;;17.10;99.90;;;;;;3623709;39;20247;-83
2021/06/26 04:55:16;;;;;;;7.63;6.80;;;17.00;99.90;;;;;;3657975;22;20236;-85
2021/06/26 04:57:44;;;;;;;6.30;5.70;;;17.00;99.90;;;;;;3748920;22;20237;-84
2021/06/26 05:00:12;;;;;;;7.60;6.78;;;16.80;99.90;;;;;;3784017;22;20338;-83
2021/06/26 05:05:30;;;;;;;11.23;7.38;;;16.80;99.90;;;;;;3418046;23;20262;-85
2021/06/26 05:07:58;;;;;;;7.35;6.68;;;16.80;99.90;;;;;;3723655;22;21298;-84
2021/06/26 05:10:26;;;;;;;8.45;7.50;;;16.70;99.90;;;;;;3658554;22;20222;-84
2021/06/26 05:12:53;;;;;;;8.48;6.88;;;16.80;99.90;;;;;;3729145;22;20225;-84
2021/06/26 05:15:20;;;;;;;8.00;7.00;;;17.00;99.90;;;;;;3659713;22;20241;-85
2021/06/26 05:17:47;;;;;;;7.68;6.95;;;17.00;99.90;;;;;;3692912;22;20237;-83
2021/06/26 05:20:17;;;;;;;7.25;6.55;;;17.20;99.90;;;;;;3693207;22;20234;-84
2021/06/26 05:22:44;;;;;;;7.68;6.75;;;17.50;99.90;;;;;;3721204;22;20269;-83
2021/06/26 05:25:13;;;;;;;8.13;7.40;;;17.80;99.90;;;;;;3683856;23;21184;-85
2021/06/26 05:27:40;;;;;;;8.18;7.55;;;18.00;99.90;;;;;;3639630;22;20245;-84
2021/06/26 05:30:09;;;;;;;7.22;6.53;;;17.80;99.90;;;;;;3648998;22;20269;-85
2021/06/26 05:32:36;;;;;;;8.52;7.55;;;17.80;99.90;;;;;;3669148;22;20251;-85
2021/06/26 05:35:04;;;;;;;9.65;7.88;;;17.80;99.90;;;;;;3638039;23;20231;-85
2021/06/26 05:37:31;;;;;;;8.73;7.53;;;18.00;99.90;;;;;;3604646;40;20222;-87
2021/06/26 05:39:59;;;;;;;16.38;9.07;;;17.90;99.90;;;;;;3679078;23;20327;-88
2021/06/26 05:42:27;;;;;;;10.60;8.48;;;17.80;99.90;;;;;;3637438;22;20230;-85
2021/06/26 05:44:54;;;;;;;8.23;7.43;;;17.70;99.90;;;;;;3727299;22;20230;-79
2021/06/26 05:47:22;;;;;;;8.00;7.20;;;17.60;99.90;;;;;;3613184;39;20564;-82
2021/06/26 05:49:49;;;;;;;11.82;6.93;;;17.60;99.90;;;;;;3613889;39;20221;-81
2021/06/26 05:52:16;;;;;;;8.93;8.10;;;17.60;99.90;;;;;;3605070;39;20210;-83
2021/06/26 05:54:43;;;;;;;7.82;7.20;;;18.00;99.90;;;;;;3638212;23;20242;-81
2021/06/26 05:57:10;;;;;;;8.38;7.53;;;18.10;99.90;;;;;;3680631;22;20257;-80
2021/06/26 05:59:39;;;;;;;8.30;7.55;;;18.00;99.90;;;;;;3613647;39;20198;-82
2021/06/26 06:02:10;;;;;;;8.13;6.60;;;17.90;99.90;;;;;;3605310;39;20238;-84
2021/06/26 06:04:37;;;;;;;9.23;7.72;;;17.80;99.90;;;;;;3613961;39;20230;-81
2021/06/26 06:07:04;;;;;;;8.88;7.85;;;17.90;99.90;;;;;;3647060;22;20233;-82
2021/06/26 06:09:31;;;;;;;10.20;7.55;;;18.10;99.90;;;;;;3658338;23;20249;-82
2021/06/26 06:11:58;;;;;;;8.77;7.88;;;17.80;99.90;;;;;;3613704;39;20230;-82
2021/06/26 06:14:26;;;;;;;10.05;8.48;;;18.00;99.90;;;;;;3613267;39;20226;-81
2021/06/26 06:16:54;;;;;;;8.77;7.97;;;18.30;99.90;;;;;;3613264;39;20226;-82
2021/06/26 06:19:21;;;;;;;9.75;8.85;;;18.80;99.90;;;;;;3613723;39;20617;-84
2021/06/26 06:21:49;;;;;;;9.52;8.50;;;19.00;99.90;;;;;;3613707;39;20214;-84
2021/06/26 06:27:04;;;;;;;11.05;9.50;;;19.30;99.90;;;;;;3612911;39;20681;-83
2021/06/26 06:29:31;;;;;;;9.93;9.00;;;19.40;99.90;;;;;;3604665;39;20229;-86
2021/06/26 06:32:00;;;;;;;11.60;10.40;;;19.90;99.90;;;;;;3613074;39;20263;-83
2021/06/26 06:34:27;;;;;;;9.80;9.00;;;20.30;99.90;;;;;;3608061;39;20227;-84
2021/06/26 06:36:55;;;;;;;9.18;8.38;;;20.50;99.90;;;;;;3611201;39;20286;-83
2021/06/26 06:39:24;;;;;;;11.50;10.10;;;20.50;99.90;;;;;;3603277;40;20241;-83
2021/06/26 06:41:51;;;;;;;11.10;10.07;;;20.60;99.90;;;;;;3594550;40;20231;-85
2021/06/26 06:44:19;;;;;;;9.93;9.02;;;20.60;99.90;;;;;;3602514;40;20237;-86
2021/06/26 06:46:46;;;;;;;10.07;9.10;;;20.60;99.90;;;;;;3603131;40;20239;-83
2021/06/26 06:49:15;;;;;;;10.90;9.93;;;20.30;99.90;;;;;;3594413;40;20238;-84
2021/06/26 06:51:42;;;;;;;10.48;9.40;;;20.40;99.90;;;;;;3608720;39;20258;-86
2021/06/26 06:54:09;;;;;;;11.45;10.25;;;20.40;99.90;;;;;;3612555;39;20814;-82
2021/06/26 06:56:36;;;;;;;12.23;11.02;;;20.30;99.90;;;;;;3613183;39;20221;-85
2021/06/26 06:59:03;;;;;;;12.95;11.70;;;20.40;99.90;;;;;;3603066;39;20851;-83
2021/06/26 07:01:31;;;;;;;15.18;13.57;;;20.50;99.90;;;;;;3613218;39;20838;-83
2021/06/26 07:03:58;;;;;;;14.40;12.93;;;20.70;99.90;;;;;;3613254;39;20234;-82
2021/06/26 07:06:26;;;;;;;12.75;11.65;;;20.90;99.90;;;;;;3613028;39;20230;-83
2021/06/26 07:08:53;;;;;;;14.50;13.10;;;21.00;99.90;;;;;;3613077;39;20245;-86
2021/06/26 07:11:22;;;;;;;16.60;15.10;;;21.00;99.90;;;;;;3613172;39;20262;-85
2021/06/26 07:13:49;;;;;;;15.48;13.88;;;21.40;99.90;;;;;;3604444;39;20818;-84
2021/06/26 07:16:16;;;;;;;12.00;10.80;;;21.60;99.90;;;;;;3613130;39;20246;-83
2021/06/26 07:18:43;;;;;;;11.57;10.32;;;21.40;99.90;;;;;;3613041;39;20286;-84
2021/06/26 07:21:10;;;;;;;11.18;10.18;;;21.40;99.90;;;;;;3613096;39;20221;-85
2021/06/26 07:23:42;;;;;;;12.30;11.20;;;21.50;99.90;;;;;;3604390;39;20267;-83
2021/06/26 07:26:09;;;;;;;12.10;10.95;;;21.40;99.90;;;;;;3604281;39;20238;-83
2021/06/26 07:28:36;;;;;;;10.60;9.73;;;21.60;99.90;;;;;;3604281;39;20222;-86
2021/06/26 07:31:03;;;;;;;42.28;31.48;;;21.70;99.90;;;;;;3604510;39;20256;-83
2021/06/26 07:33:31;;;;;;;29.35;26.30;;;21.90;99.90;;;;;;3613001;39;20241;-87
2021/06/26 07:35:58;;;;;;;11.23;10.18;;;21.90;99.90;;;;;;3610598;39;20307;-84
2021/06/26 07:38:25;;;;;;;10.50;9.40;;;22.00;99.90;;;;;;3612928;39;20265;-83
2021/06/26 07:40:54;;;;;;;9.07;8.27;;;22.00;99.90;;;;;;3612357;39;20763;-81
2021/06/26 07:43:21;;;;;;;9.30;8.40;;;22.00;99.90;;;;;;3612834;39;20254;-85
2021/06/26 07:45:48;;;;;;;9.77;8.68;;;22.00;99.90;;;;;;3612999;39;20783;-85
2021/06/26 07:48:15;;;;;;;9.80;8.90;;;22.00;99.90;;;;;;3611882;39;20263;-85
2021/06/26 07:50:42;;;;;;;8.30;7.55;;;22.30;99.90;;;;;;3613051;39;20220;-86
2021/06/26 07:53:09;;;;;;;7.88;7.18;;;22.40;99.90;;;;;;3612845;39;20245;-83
2021/06/26 07:55:37;;;;;;;8.93;7.60;;;22.20;99.90;;;;;;3612868;39;20214;-90
2021/06/26 07:58:05;;;;;;;9.63;8.77;;;22.10;99.90;;;;;;3612549;39;20230;-83
2021/06/26 08:00:33;;;;;;;10.38;9.20;;;21.90;99.90;;;;;;3612367;39;20270;-83
2021/06/26 08:08:24;;;;;;;10.25;7.45;;;22.10;99.90;;;;;;3629031;23;21289;-85
2021/06/26 08:10:51;;;;;;;8.63;7.90;;;22.10;99.90;;;;;;3622770;39;20236;-88
2021/06/26 08:13:20;;;;;;;7.88;7.18;;;21.70;99.90;;;;;;3622523;39;20237;-86
2021/06/26 08:15:47;;;;;;;7.22;6.53;;;21.40;99.90;;;;;;3622754;39;20233;-83
2021/06/26 08:18:15;;;;;;;10.02;7.32;;;21.70;99.90;;;;;;3622870;39;20225;-87
2021/06/26 08:23:48;;;;;;;7.45;6.70;;;22.60;99.90;;;;;;3621902;39;20269;-82
2021/06/26 08:26:16;;;;;;;8.75;7.07;;;23.00;99.90;;;;;;3622733;39;20212;-85
2021/06/26 08:29:09;;;;;;;6.85;6.13;;;23.40;99.90;;;;;;3649288;22;20245;-90
2021/06/26 08:31:37;;;;;;;7.65;6.90;;;22.90;99.90;;;;;;3613468;39;20272;-82
2021/06/26 08:34:05;;;;;;;8.20;6.57;;;22.60;99.90;;;;;;3622768;39;20257;-84
2021/06/26 08:36:33;;;;;;;7.03;6.30;;;22.70;99.90;;;;;;3622716;39;20224;-83
2021/06/26 08:39:01;;;;;;;6.60;5.93;;;23.10;99.90;;;;;;3622659;39;20245;-83
2021/06/26 08:41:39;;;;;;;6.88;6.28;;;23.20;99.90;;;;;;3769389;22;20367;-83
2021/06/26 08:44:07;;;;;;;7.25;6.65;;;23.40;99.90;;;;;;3924437;22;20217;-83
2021/06/26 08:46:40;;;;;;;6.47;5.75;;;23.50;99.90;;;;;;3667779;23;20225;-84
2021/06/26 08:49:08;;;;;;;5.38;4.85;;;23.10;99.90;;;;;;3707917;22;20338;-85
2021/06/26 08:51:39;;;;;;;6.28;5.45;;;22.80;99.90;;;;;;3719885;22;21285;31
2021/06/26 08:54:12;;;;;;;9.88;4.72;;;22.70;99.90;;;;;;3668177;22;20264;-84
2021/06/26 08:56:42;;;;;;;5.63;5.03;;;23.00;99.90;;;;;;3773119;22;20876;-83
2021/06/26 08:59:11;;;;;;;5.28;4.78;;;23.20;99.90;;;;;;3821679;22;20237;-82
2021/06/26 09:01:41;;;;;;;7.38;5.07;;;23.80;99.90;;;;;;3739165;22;20268;-83
2021/06/26 09:04:10;;;;;;;5.15;4.63;;;24.10;99.90;;;;;;3684721;22;20221;-82
2021/06/26 09:06:41;;;;;;;5.80;4.80;;;24.10;99.90;;;;;;3800375;22;20269;-83
2021/06/26 09:09:10;;;;;;;5.45;4.05;;;23.90;99.90;;;;;;3796413;22;20221;-81
2021/06/26 09:11:37;;;;;;;5.30;4.78;;;24.10;99.90;;;;;;3695824;22;20251;-84
2021/06/26 09:14:04;;;;;;;6.03;5.43;;;24.40;99.90;;;;;;3716061;22;20288;-83
2021/06/26 09:16:33;;;;;;;7.93;4.72;;;24.80;99.90;;;;;;3693627;22;20244;-83
2021/06/26 09:19:13;;;;;;;8.20;5.80;;;24.60;99.90;;;;;;3680090;22;20225;-84
2021/06/26 09:24:13;;;;;;;7.53;5.95;;;24.40;99.90;;;;;;3727375;22;20265;-82
2021/06/26 09:26:43;;;;;;;10.23;5.60;;;24.10;99.90;;;;;;3862390;22;20270;-80
2021/06/26 09:31:51;;;;;;;6.70;5.65;;;24.70;99.90;;;;;;3740261;22;20205;-81
2021/06/26 09:34:23;;;;;;;5.45;4.88;;;24.40;99.90;;;;;;3882391;22;21603;-81
2021/06/26 09:37:01;;;;;;;5.60;5.03;;;24.50;99.90;;;;;;3826194;22;20294;-81
2021/06/26 09:39:34;;;;;;;7.18;5.20;;;24.70;99.90;;;;;;3725964;22;20228;-85
2021/06/26 09:42:17;;;;;;;6.70;5.20;;;24.90;99.90;;;;;;3793411;22;20225;-85
2021/06/26 09:44:49;;;;;;;8.63;4.47;;;25.20;99.90;;;;;;3686890;22;20258;-85
2021/06/26 09:47:27;;;;;;;5.10;4.60;;;25.10;99.90;;;;;;3794985;22;20327;-81
2021/06/26 09:50:06;;;;;;;9.65;6.07;;;25.10;99.90;;;;;;3783574;22;20290;-83
2021/06/26 09:52:39;;;;;;;7.28;6.60;;;25.30;99.90;;;;;;3862166;22;20278;-83
2021/06/26 09:55:10;;;;;;;6.35;4.78;;;25.50;99.90;;;;;;3759712;22;20286;-85
2021/06/26 09:57:37;;;;;;;6.25;5.55;;;25.10;99.90;;;;;;3773639;22;20234;-83
2021/06/26 10:00:06;;;;;;;6.00;4.97;;;25.10;99.90;;;;;;3831371;22;20308;-82
2021/06/26 10:02:42;;;;;;;5.88;5.32;;;24.60;99.90;;;;;;2626088;22;20414;-87
2021/06/26 10:05:13;;;;;;;6.55;5.75;;;24.90;99.90;;;;;;3788269;22;20280;-81
2021/06/26 10:07:42;;;;;;;5.32;4.78;;;25.10;99.90;;;;;;3751284;22;20237;-81
2021/06/26 10:10:12;;;;;;;7.03;6.22;;;25.10;99.90;;;;;;3749016;22;20256;-81
2021/06/26 10:15:15;;;;;;;6.43;5.45;;;25.10;99.90;;;;;;3821280;22;20256;-83
2021/06/26 10:17:45;;;;;;;5.25;4.75;;;25.30;99.90;;;;;;3657090;22;20267;-85
2021/06/26 10:22:39;;;;;;;7.28;5.47;;;25.50;99.90;;;;;;3936870;22;20257;-88
2021/06/26 10:25:11;;;;;;;4.88;4.47;;;25.80;99.90;;;;;;3759455;22;20265;-84
2021/06/26 10:27:38;;;;;;;6.55;5.75;;;25.60;99.90;;;;;;3716473;22;21268;-84
2021/06/26 10:30:19;;;;;;;6.25;5.47;;;25.20;99.90;;;;;;3780754;22;20265;-85
2021/06/26 10:32:55;;;;;;;6.75;5.90;;;25.00;99.90;;;;;;3733120;22;20303;-82
2021/06/26 10:35:23;;;;;;;5.60;5.10;;;24.60;99.90;;;;;;3608276;39;20278;-81
2021/06/26 10:38:08;;;;;;;6.43;4.82;;;24.40;99.90;;;;;;3608140;39;20218;-84
2021/06/26 10:40:42;;;;;;;5.07;4.68;;;25.00;99.90;;;;;;3609214;39;20311;-83
2021/06/26 10:43:21;;;;;;;6.50;5.90;;;25.30;99.90;;;;;;3612488;39;20242;-83
2021/06/26 10:45:50;;;;;;;7.28;6.55;;;24.90;99.90;;;;;;3603146;39;20250;-83
2021/06/26 10:48:19;;;;;;;6.85;5.00;;;24.90;99.90;;;;;;3609781;39;20251;-84
2021/06/26 10:50:48;;;;;;;6.72;4.80;;;25.50;99.90;;;;;;3602603;39;20214;-83
2021/06/26 10:53:26;;;;;;;4.78;4.28;;;25.60;99.90;;;;;;3602605;39;20258;-85
2021/06/26 10:56:09;;;;;;;5.38;3.85;;;25.90;99.90;;;;;;3602285;39;20239;-83
2021/06/26 10:58:38;;;;;;;5.53;4.93;;;26.30;99.90;;;;;;3593867;39;20266;-82
2021/06/26 11:01:17;;;;;;;5.13;4.63;;;26.50;99.90;;;;;;3603573;39;20296;-82
2021/06/26 11:03:44;;;;;;;5.85;4.35;;;26.30;99.90;;;;;;3611447;39;20295;-82
2021/06/26 11:06:26;;;;;;;4.68;4.28;;;26.60;99.90;;;;;;3611162;39;20235;-85
2021/06/26 11:09:01;;;;;;;5.68;5.18;;;26.70;99.90;;;;;;3602898;39;20242;-81
2021/06/26 11:11:32;;;;;;;19.08;15.90;;;26.70;99.90;;;;;;3602831;39;20229;-82
2021/06/26 11:14:07;;;;;;;5.32;4.60;;;26.90;99.90;;;;;;3605537;39;20269;-85
2021/06/26 11:17:00;;;;;;;5.38;4.65;;;27.10;99.90;;;;;;3641602;22;20273;-85
2021/06/26 11:19:31;;;;;;;4.10;3.80;;;27.30;99.90;;;;;;3582585;40;20259;-84
2021/06/26 11:22:00;;;;;;;5.75;3.38;;;27.20;99.90;;;;;;3602798;40;20246;-81
2021/06/26 11:24:52;;;;;;;4.40;4.00;;;27.30;99.90;;;;;;3625813;22;20234;-89
2021/06/26 11:27:23;;;;;;;3.42;3.22;;;27.10;99.90;;;;;;3600867;40;20733;-81
2021/06/26 11:29:51;;;;;;;3.53;3.22;;;27.20;99.90;;;;;;3602385;40;20219;-84
2021/06/26 11:32:23;;;;;;;4.43;3.78;;;26.60;99.90;;;;;;3602640;39;20255;-82
2021/06/26 11:34:55;;;;;;;4.05;3.45;;;26.70;99.90;;;;;;3602689;39;20226;-82
2021/06/26 11:37:23;;;;;;;3.25;2.95;;;27.30;99.90;;;;;;3599319;39;20234;-84
2021/06/26 11:39:50;;;;;;;3.45;2.78;;;27.60;99.90;;;;;;3602004;39;20266;-81
2021/06/26 11:42:20;;;;;;;3.92;3.63;;;27.20;99.90;;;;;;3595556;39;20223;-80
2021/06/26 11:44:48;;;;;;;3.55;3.25;;;27.40;99.90;;;;;;3597559;39;20302;-84
2021/06/26 11:47:15;;;;;;;2.70;2.53;;;26.30;99.90;;;;;;3593883;39;20239;-83
2021/06/26 11:49:44;;;;;;;3.17;2.88;;;26.60;99.90;;;;;;3596984;39;20219;-82
2021/06/26 11:52:14;;;;;;;3.05;2.83;;;27.20;99.90;;;;;;3592004;40;20301;-80
2021/06/26 11:54:42;;;;;;;3.33;3.03;;;27.60;99.90;;;;;;3585302;39;20230;-83
2021/06/26 11:57:12;;;;;;;6.60;2.90;;;27.50;99.90;;;;;;3602207;39;20231;-81
2021/06/26 11:59:47;;;;;;;2.85;2.65;;;28.00;99.90;;;;;;3601255;39;21074;-85
2021/06/26 12:02:16;;;;;;;3.40;3.03;;;28.00;99.90;;;;;;3585379;39;20245;-82
2021/06/26 12:04:44;;;;;;;5.00;3.65;;;28.40;99.90;;;;;;3593346;39;20231;-87
2021/06/26 12:07:12;;;;;;;5.70;4.00;;;28.60;99.90;;;;;;3590120;39;20230;-85
2021/06/26 12:09:41;;;;;;;3.60;3.30;;;28.50;99.90;;;;;;3602062;39;20295;-83
2021/06/26 12:12:09;;;;;;;5.30;3.78;;;28.40;99.90;;;;;;3602509;39;20282;-86
2021/06/26 12:14:36;;;;;;;3.35;3.05;;;27.60;99.90;;;;;;3602139;39;20242;-81
2021/06/26 12:17:09;;;;;;;3.65;3.35;;;27.80;99.90;;;;;;3681530;22;20282;-83
2021/06/26 12:22:10;;;;;;;4.25;3.80;;;28.40;99.90;;;;;;3621353;39;20252;-85
2021/06/26 12:24:39;;;;;;;6.90;3.90;;;28.60;99.90;;;;;;3613759;39;20248;-84
2021/06/26 12:27:12;;;;;;;4.00;3.60;;;28.90;99.90;;;;;;3613718;39;20229;-82
2021/06/26 12:29:44;;;;;;;4.22;3.22;;;29.10;99.90;;;;;;3613942;39;20863;-82
2021/06/26 12:32:26;;;;;;;4.07;3.78;;;29.50;99.90;;;;;;3613891;39;20245;-87
2021/06/26 12:34:54;;;;;;;3.72;3.38;;;29.40;99.90;;;;;;3622698;39;20275;-84
2021/06/26 12:37:32;;;;;;;3.90;3.53;;;29.60;99.90;;;;;;3622466;39;20229;-83
2021/06/26 12:40:09;;;;;;;4.03;3.72;;;29.10;99.90;;;;;;3622218;39;20240;-82
2021/06/26 12:42:38;;;;;;;7.72;3.38;;;28.50;99.90;;;;;;3622435;39;20297;-82
2021/06/26 12:45:07;;;;;;;4.18;3.28;;;28.50;99.90;;;;;;3622636;39;20213;-85
2021/06/26 12:47:35;;;;;;;5.50;3.08;;;29.10;99.90;;;;;;3613970;39;20209;-84
2021/06/26 12:50:08;;;;;;;4.07;2.92;;;29.40;99.90;;;;;;3622538;39;20720;-82
2021/06/26 12:52:37;;;;;;;4.30;3.20;;;29.50;99.90;;;;;;3622204;39;20233;-86
2021/06/26 12:55:05;;;;;;;3.42;3.13;;;29.30;99.90;;;;;;3622313;39;20728;-85
2021/06/26 12:57:39;;;;;;;3.88;3.58;;;29.20;99.90;;;;;;3622464;39;20261;-83
2021/06/26 13:00:18;;;;;;;2.95;2.75;;;28.70;99.90;;;;;;3622487;39;20244;-80
2021/06/26 13:02:47;;;;;;;6.65;6.05;;;29.20;99.90;;;;;;3622505;39;20256;-82
2021/06/26 13:05:19;;;;;;;3.83;3.53;;;29.20;99.90;;;;;;3613747;39;20798;-82
2021/06/26 13:07:46;;;;;;;5.60;3.65;;;29.40;99.90;;;;;;3621691;39;20241;-82
2021/06/26 13:10:13;;;;;;;5.22;3.10;;;29.60;99.90;;;;;;3613755;39;20213;-87
2021/06/26 13:12:49;;;;;;;4.38;3.33;;;29.80;99.90;;;;;;3622351;39;20297;-87
2021/06/26 13:15:16;;;;;;;3.38;2.72;;;29.60;99.90;;;;;;3620980;39;20230;-85
2021/06/26 13:17:43;;;;;;;7.70;2.78;;;29.40;99.90;;;;;;3612081;39;20291;-84
2021/06/26 13:20:13;;;;;;;4.68;3.58;;;28.60;99.90;;;;;;3611879;39;20284;-83
2021/06/26 13:22:42;;;;;;;3.25;3.00;;;27.20;99.90;;;;;;3612003;39;20265;-83
2021/06/26 13:25:10;;;;;;;3.10;2.90;;;27.20;99.90;;;;;;3612880;39;20213;-84
2021/06/26 13:27:40;;;;;;;4.20;3.90;;;27.80;99.90;;;;;;3613702;39;20290;-84
2021/06/26 13:30:09;;;;;;;3.65;2.67;;;27.60;99.90;;;;;;3613574;39;20237;-83
2021/06/26 13:32:36;;;;;;;3.35;3.05;;;27.50;99.90;;;;;;3604832;39;20282;-82
2021/06/26 13:35:04;;;;;;;4.00;2.90;;;26.90;99.90;;;;;;3613672;39;20287;-83
2021/06/26 13:37:32;;;;;;;5.80;3.13;;;27.00;99.90;;;;;;3604879;39;20237;-83
2021/06/26 13:39:59;;;;;;;2.67;2.47;;;27.30;99.90;;;;;;3613284;39;20210;-81
2021/06/26 13:42:26;;;;;;;3.58;3.38;;;27.20;99.90;;;;;;3613423;39;20242;-85
2021/06/26 13:44:53;;;;;;;3.30;3.03;;;26.90;99.90;;;;;;3604510;39;20217;-83
2021/06/26 13:47:20;;;;;;;4.95;3.33;;;27.90;99.90;;;;;;3613344;39;20899;-84
2021/06/26 13:49:48;;;;;;;4.25;3.80;;;29.00;99.90;;;;;;3613459;39;20903;-82
2021/06/26 13:52:15;;;;;;;5.70;5.20;;;29.30;99.90;;;;;;3613283;39;20238;-82
2021/06/26 13:54:43;;;;;;;8.18;3.63;;;29.40;99.90;;;;;;3604601;39;20237;-83
2021/06/26 13:57:10;;;;;;;8.20;3.65;;;29.50;99.90;;;;;;3613131;39;20744;-83
2021/06/26 13:59:37;;;;;;;4.95;4.55;;;28.00;99.90;;;;;;3612888;39;20806;-84
2021/06/26 14:02:04;;;;;;;3.83;3.58;;;27.80;99.90;;;;;;3613001;39;20249;-84
2021/06/26 14:04:32;;;;;;;5.10;4.15;;;28.30;99.90;;;;;;3613070;39;20249;-84
2021/06/26 14:06:59;;;;;;;3.03;2.83;;;28.20;99.90;;;;;;3613028;39;20230;-88
2021/06/26 14:09:27;;;;;;;4.05;3.47;;;28.80;99.90;;;;;;3613440;39;20210;-86
2021/06/26 14:11:56;;;;;;;3.83;3.53;;;29.60;99.90;;;;;;3613431;39;20244;-83
2021/06/26 14:14:23;;;;;;;3.47;2.97;;;29.00;99.90;;;;;;3613459;39;20249;-83
2021/06/26 14:16:50;;;;;;;6.53;3.83;;;28.60;99.90;;;;;;3604456;39;20233;-86
2021/06/26 14:19:17;;;;;;;3.45;3.15;;;28.30;99.90;;;;;;3611944;39;20286;-83
2021/06/26 14:21:44;;;;;;;3.08;2.88;;;28.70;99.90;;;;;;3604664;39;20745;-85